sensor_id;sensor_type;location;lat;lon;timestamp;temperature;humidity
58865;DHT22;45702;52.982;6.658;2023-10-09T00:02:11;14.20;99.90
58865;DHT22;45702;52.982;6.658;2023-10-09T00:04:41;14.20;99.90
58865;DHT22;45702;52.982;6.658;2023-10-09T00:07:08;14.20;99.90
58865;DHT22;45702;52.982;6.658;2023-10-09T00:09:37;14.20;99.90
58865;DHT22;45702;52.982;6.658;2023-10-09T00:12:20;14.20;99.90
58865;DHT22;45702;52.982;6.658;2023-10-09T00:14:51;14.20;99.90
58865;DHT22;45702;52.982;6.658;2023-10-09T00:17:36;14.20;99.90
58865;DHT22;45702;52.982;6.658;2023-10-09T00:20:02;14.10;99.90
58865;DHT22;45702;52.982;6.658;2023-10-09T00:22:42;14.20;99.90
58865;DHT22;45702;52.982;6.658;2023-10-09T00:25:12;14.20;99.90
58865;DHT22;45702;52.982;6.658;2023-10-09T00:27:42;14.10;99.90
58865;DHT22;45702;52.982;6.658;2023-10-09T00:30:12;14.20;99.90
58865;DHT22;45702;52.982;6.658;2023-10-09T00:32:43;14.20;99.90
58865;DHT22;45702;52.982;6.658;2023-10-09T00:35:18;14.20;99.90
58865;DHT22;45702;52.982;6.658;2023-10-09T00:38:06;14.20;99.90
58865;DHT22;45702;52.982;6.658;2023-10-09T00:40:40;14.10;99.90
58865;DHT22;45702;52.982;6.658;2023-10-09T00:43:13;14.20;99.90
58865;DHT22;45702;52.982;6.658;2023-10-09T00:45:40;14.20;99.90
58865;DHT22;45702;52.982;6.658;2023-10-09T00:48:09;14.20;99.90
58865;DHT22;45702;52.982;6.658;2023-10-09T00:50:35;14.20;99.90
58865;DHT22;45702;52.982;6.658;2023-10-09T00:53:02;14.20;99.90
58865;DHT22;45702;52.982;6.658;2023-10-09T00:55:35;14.20;99.90
58865;DHT22;45702;52.982;6.658;2023-10-09T00:58:02;14.20;99.90
58865;DHT22;45702;52.982;6.658;2023-10-09T01:00:35;14.20;99.90
58865;DHT22;45702;52.982;6.658;2023-10-09T01:03:11;14.20;99.90
58865;DHT22;45702;52.982;6.658;2023-10-09T01:05:44;14.20;99.90
58865;DHT22;45702;52.982;6.658;2023-10-09T01:08:40;14.20;99.90
58865;DHT22;45702;52.982;6.658;2023-10-09T01:11:10;14.20;99.90
58865;DHT22;45702;52.982;6.658;2023-10-09T01:13:45;14.20;99.90
58865;DHT22;45702;52.982;6.658;2023-10-09T01:16:14;14.20;99.90
58865;DHT22;45702;52.982;6.658;2023-10-09T01:18:47;14.20;99.90
58865;DHT22;45702;52.982;6.658;2023-10-09T01:21:17;14.20;99.90
58865;DHT22;45702;52.982;6.658;2023-10-09T01:23:44;14.20;99.90
58865;DHT22;45702;52.982;6.658;2023-10-09T01:26:25;14.20;99.90
58865;DHT22;45702;52.982;6.658;2023-10-09T01:28:51;14.20;99.90
58865;DHT22;45702;52.982;6.658;2023-10-09T01:31:24;14.20;99.90
58865;DHT22;45702;52.982;6.658;2023-10-09T01:33:54;14.20;99.90
58865;DHT22;45702;52.982;6.658;2023-10-09T01:36:25;14.20;99.90
58865;DHT22;45702;52.982;6.658;2023-10-09T01:38:59;14.20;99.90
58865;DHT22;45702;52.982;6.658;2023-10-09T01:41:25;14.30;99.90
58865;DHT22;45702;52.982;6.658;2023-10-09T01:43:51;14.20;99.90
58865;DHT22;45702;52.982;6.658;2023-10-09T01:46:26;14.20;99.90
58865;DHT22;45702;52.982;6.658;2023-10-09T01:48:51;14.20;99.90
58865;DHT22;45702;52.982;6.658;2023-10-09T01:51:19;14.20;99.90
58865;DHT22;45702;52.982;6.658;2023-10-09T01:53:45;14.20;99.90
58865;DHT22;45702;52.982;6.658;2023-10-09T01:56:19;14.20;99.90
58865;DHT22;45702;52.982;6.658;2023-10-09T01:58:45;14.20;99.90
58865;DHT22;45702;52.982;6.658;2023-10-09T02:01:13;14.20;99.90
58865;DHT22;45702;52.982;6.658;2023-10-09T02:03:39;14.20;99.90
58865;DHT22;45702;52.982;6.658;2023-10-09T02:06:08;14.20;99.90
58865;DHT22;45702;52.982;6.658;2023-10-09T02:08:52;14.20;99.90
58865;DHT22;45702;52.982;6.658;2023-10-09T02:11:18;14.20;99.90
58865;DHT22;45702;52.982;6.658;2023-10-09T02:14:02;14.20;99.90
58865;DHT22;45702;52.982;6.658;2023-10-09T02:16:31;14.20;99.90
58865;DHT22;45702;52.982;6.658;2023-10-09T02:19:07;14.20;99.90
58865;DHT22;45702;52.982;6.658;2023-10-09T02:21:55;14.20;99.90
58865;DHT22;45702;52.982;6.658;2023-10-09T02:24:24;14.20;99.90
58865;DHT22;45702;52.982;6.658;2023-10-09T02:27:12;14.20;99.90
58865;DHT22;45702;52.982;6.658;2023-10-09T02:29:48;14.20;99.90
58865;DHT22;45702;52.982;6.658;2023-10-09T02:32:13;14.20;99.90
58865;DHT22;45702;52.982;6.658;2023-10-09T02:34:51;14.20;99.90
58865;DHT22;45702;52.982;6.658;2023-10-09T02:37:20;14.20;99.90
58865;DHT22;45702;52.982;6.658;2023-10-09T02:39:49;14.20;99.90
58865;DHT22;45702;52.982;6.658;2023-10-09T02:42:18;14.20;99.90
58865;DHT22;45702;52.982;6.658;2023-10-09T02:44:50;14.20;99.90
58865;DHT22;45702;52.982;6.658;2023-10-09T02:47:18;14.20;99.90
58865;DHT22;45702;52.982;6.658;2023-10-09T02:49:55;14.20;99.90
58865;DHT22;45702;52.982;6.658;2023-10-09T02:52:26;14.20;99.90
58865;DHT22;45702;52.982;6.658;2023-10-09T02:54:58;14.20;99.90
58865;DHT22;45702;52.982;6.658;2023-10-09T02:57:32;14.20;99.90
58865;DHT22;45702;52.982;6.658;2023-10-09T03:00:07;14.20;99.90
58865;DHT22;45702;52.982;6.658;2023-10-09T03:02:45;14.20;99.90
58865;DHT22;45702;52.982;6.658;2023-10-09T03:05:11;14.10;99.90
58865;DHT22;45702;52.982;6.658;2023-10-09T03:07:38;14.20;99.90
58865;DHT22;45702;52.982;6.658;2023-10-09T03:10:08;14.20;99.90
58865;DHT22;45702;52.982;6.658;2023-10-09T03:12:35;14.10;99.90
58865;DHT22;45702;52.982;6.658;2023-10-09T03:15:01;14.10;99.90
58865;DHT22;45702;52.982;6.658;2023-10-09T03:17:28;14.10;99.90
58865;DHT22;45702;52.982;6.658;2023-10-09T03:19:54;14.20;99.90
58865;DHT22;45702;52.982;6.658;2023-10-09T03:22:20;14.20;99.90
58865;DHT22;45702;52.982;6.658;2023-10-09T03:24:45;14.20;99.90
58865;DHT22;45702;52.982;6.658;2023-10-09T03:27:11;14.20;99.90
58865;DHT22;45702;52.982;6.658;2023-10-09T03:29:39;14.20;99.90
58865;DHT22;45702;52.982;6.658;2023-10-09T03:32:05;14.20;99.90
58865;DHT22;45702;52.982;6.658;2023-10-09T03:34:32;14.30;99.90
58865;DHT22;45702;52.982;6.658;2023-10-09T03:36:58;14.20;99.90
58865;DHT22;45702;52.982;6.658;2023-10-09T03:39:33;14.30;99.90
58865;DHT22;45702;52.982;6.658;2023-10-09T03:42:00;14.30;99.90
58865;DHT22;45702;52.982;6.658;2023-10-09T03:44:30;14.30;99.90
58865;DHT22;45702;52.982;6.658;2023-10-09T03:46:59;14.40;99.90
58865;DHT22;45702;52.982;6.658;2023-10-09T03:49:24;14.40;99.90
58865;DHT22;45702;52.982;6.658;2023-10-09T03:51:51;14.40;99.90
58865;DHT22;45702;52.982;6.658;2023-10-09T03:54:17;14.40;99.90
58865;DHT22;45702;52.982;6.658;2023-10-09T03:56:46;14.50;99.90
58865;DHT22;45702;52.982;6.658;2023-10-09T03:59:17;14.50;99.90
58865;DHT22;45702;52.982;6.658;2023-10-09T04:01:42;14.50;99.90
58865;DHT22;45702;52.982;6.658;2023-10-09T04:04:09;14.60;99.90
58865;DHT22;45702;52.982;6.658;2023-10-09T04:06:39;14.70;99.90
58865;DHT22;45702;52.982;6.658;2023-10-09T04:09:07;14.70;99.90
58865;DHT22;45702;52.982;6.658;2023-10-09T04:11:59;14.70;99.90
58865;DHT22;45702;52.982;6.658;2023-10-09T04:14:48;14.70;99.90
58865;DHT22;45702;52.982;6.658;2023-10-09T04:17:26;14.80;99.90
58865;DHT22;45702;52.982;6.658;2023-10-09T04:19:55;14.80;99.90
58865;DHT22;45702;52.982;6.658;2023-10-09T04:22:40;14.80;99.90
58865;DHT22;45702;52.982;6.658;2023-10-09T04:25:35;14.80;99.90
58865;DHT22;45702;52.982;6.658;2023-10-09T04:28:08;14.90;99.90
58865;DHT22;45702;52.982;6.658;2023-10-09T04:30:54;14.90;99.90
58865;DHT22;45702;52.982;6.658;2023-10-09T04:33:21;14.90;99.90
58865;DHT22;45702;52.982;6.658;2023-10-09T04:36:05;14.90;99.90
58865;DHT22;45702;52.982;6.658;2023-10-09T04:38:47;14.90;99.90
58865;DHT22;45702;52.982;6.658;2023-10-09T04:41:35;14.90;99.90
58865;DHT22;45702;52.982;6.658;2023-10-09T04:44:07;14.90;99.90
58865;DHT22;45702;52.982;6.658;2023-10-09T04:46:45;14.90;99.90
58865;DHT22;45702;52.982;6.658;2023-10-09T04:49:32;15.00;99.90
58865;DHT22;45702;52.982;6.658;2023-10-09T04:52:18;15.00;99.90
58865;DHT22;45702;52.982;6.658;2023-10-09T04:54:57;15.00;99.90
58865;DHT22;45702;52.982;6.658;2023-10-09T05:00:24;15.00;99.90
58865;DHT22;45702;52.982;6.658;2023-10-09T05:02:54;15.10;99.90
58865;DHT22;45702;52.982;6.658;2023-10-09T05:05:22;15.10;99.90
58865;DHT22;45702;52.982;6.658;2023-10-09T05:08:06;15.10;99.90
58865;DHT22;45702;52.982;6.658;2023-10-09T05:10:48;15.10;99.90
58865;DHT22;45702;52.982;6.658;2023-10-09T05:13:32;15.10;99.90
58865;DHT22;45702;52.982;6.658;2023-10-09T05:16:07;15.20;99.90
58865;DHT22;45702;52.982;6.658;2023-10-09T05:18:39;15.20;99.90
58865;DHT22;45702;52.982;6.658;2023-10-09T05:21:05;15.20;99.90
58865;DHT22;45702;52.982;6.658;2023-10-09T05:23:50;15.20;99.90
58865;DHT22;45702;52.982;6.658;2023-10-09T05:26:36;15.20;99.90
58865;DHT22;45702;52.982;6.658;2023-10-09T05:29:20;15.30;99.90
58865;DHT22;45702;52.982;6.658;2023-10-09T05:32:01;15.20;99.90
58865;DHT22;45702;52.982;6.658;2023-10-09T05:34:44;15.30;99.90
58865;DHT22;45702;52.982;6.658;2023-10-09T05:37:26;15.30;99.90
58865;DHT22;45702;52.982;6.658;2023-10-09T05:39:59;15.30;99.90
58865;DHT22;45702;52.982;6.658;2023-10-09T05:42:29;15.40;99.90
58865;DHT22;45702;52.982;6.658;2023-10-09T05:50:30;15.50;99.90
58865;DHT22;45702;52.982;6.658;2023-10-09T05:53:01;15.50;99.90
58865;DHT22;45702;52.982;6.658;2023-10-09T05:55:28;15.60;99.90
58865;DHT22;45702;52.982;6.658;2023-10-09T05:58:13;15.60;99.90
58865;DHT22;45702;52.982;6.658;2023-10-09T06:00:42;15.60;99.90
58865;DHT22;45702;52.982;6.658;2023-10-09T06:03:26;15.60;99.90
58865;DHT22;45702;52.982;6.658;2023-10-09T06:06:10;15.70;99.90
58865;DHT22;45702;52.982;6.658;2023-10-09T06:08:44;15.70;99.90
58865;DHT22;45702;52.982;6.658;2023-10-09T06:11:11;15.80;99.90
58865;DHT22;45702;52.982;6.658;2023-10-09T06:13:56;15.80;99.90
58865;DHT22;45702;52.982;6.658;2023-10-09T06:16:42;15.80;99.90
58865;DHT22;45702;52.982;6.658;2023-10-09T06:19:09;15.80;99.90
58865;DHT22;45702;52.982;6.658;2023-10-09T06:21:52;15.90;99.90
58865;DHT22;45702;52.982;6.658;2023-10-09T06:24:19;15.90;99.90
58865;DHT22;45702;52.982;6.658;2023-10-09T06:26:46;15.90;99.90
58865;DHT22;45702;52.982;6.658;2023-10-09T06:29:27;15.90;99.90
58865;DHT22;45702;52.982;6.658;2023-10-09T06:32:07;15.90;99.90
58865;DHT22;45702;52.982;6.658;2023-10-09T06:34:57;16.00;99.90
58865;DHT22;45702;52.982;6.658;2023-10-09T06:37:47;16.00;99.90
58865;DHT22;45702;52.982;6.658;2023-10-09T06:40:29;16.00;99.90
58865;DHT22;45702;52.982;6.658;2023-10-09T06:43:13;16.00;99.90
58865;DHT22;45702;52.982;6.658;2023-10-09T06:45:52;16.00;99.90
58865;DHT22;45702;52.982;6.658;2023-10-09T06:48:27;16.10;99.90
58865;DHT22;45702;52.982;6.658;2023-10-09T06:51:09;16.10;99.90
58865;DHT22;45702;52.982;6.658;2023-10-09T06:53:39;16.10;99.90
58865;DHT22;45702;52.982;6.658;2023-10-09T06:56:28;16.10;99.90
58865;DHT22;45702;52.982;6.658;2023-10-09T06:58:54;16.10;99.90
58865;DHT22;45702;52.982;6.658;2023-10-09T07:01:27;16.20;99.90
58865;DHT22;45702;52.982;6.658;2023-10-09T07:03:56;16.20;99.90
58865;DHT22;45702;52.982;6.658;2023-10-09T07:06:51;16.20;99.90
58865;DHT22;45702;52.982;6.658;2023-10-09T07:09:18;16.20;99.90
58865;DHT22;45702;52.982;6.658;2023-10-09T07:11:52;16.20;99.90
58865;DHT22;45702;52.982;6.658;2023-10-09T07:14:24;16.20;99.90
58865;DHT22;45702;52.982;6.658;2023-10-09T07:19:29;16.20;99.90
58865;DHT22;45702;52.982;6.658;2023-10-09T07:22:08;16.20;99.90
58865;DHT22;45702;52.982;6.658;2023-10-09T07:24:54;16.30;99.90
58865;DHT22;45702;52.982;6.658;2023-10-09T07:27:27;16.30;99.90
58865;DHT22;45702;52.982;6.658;2023-10-09T07:30:20;16.30;99.90
58865;DHT22;45702;52.982;6.658;2023-10-09T07:35:34;16.30;99.90
58865;DHT22;45702;52.982;6.658;2023-10-09T07:38:13;16.30;99.90
58865;DHT22;45702;52.982;6.658;2023-10-09T07:40:41;16.30;99.90
58865;DHT22;45702;52.982;6.658;2023-10-09T07:43:31;16.30;99.90
58865;DHT22;45702;52.982;6.658;2023-10-09T07:46:26;16.30;99.90
58865;DHT22;45702;52.982;6.658;2023-10-09T07:49:10;16.30;99.90
58865;DHT22;45702;52.982;6.658;2023-10-09T07:51:39;16.30;99.90
58865;DHT22;45702;52.982;6.658;2023-10-09T07:54:09;16.30;99.90
58865;DHT22;45702;52.982;6.658;2023-10-09T07:56:41;16.30;99.90
58865;DHT22;45702;52.982;6.658;2023-10-09T07:59:09;16.30;99.90
58865;DHT22;45702;52.982;6.658;2023-10-09T08:01:46;16.30;99.90
58865;DHT22;45702;52.982;6.658;2023-10-09T08:04:23;16.40;99.90
58865;DHT22;45702;52.982;6.658;2023-10-09T08:07:14;16.40;99.90
58865;DHT22;45702;52.982;6.658;2023-10-09T08:10:00;16.40;99.90
58865;DHT22;45702;52.982;6.658;2023-10-09T08:12:45;16.40;99.90
58865;DHT22;45702;52.982;6.658;2023-10-09T08:15:23;16.40;99.90
58865;DHT22;45702;52.982;6.658;2023-10-09T08:17:54;16.40;99.90
58865;DHT22;45702;52.982;6.658;2023-10-09T08:20:25;16.40;99.90
58865;DHT22;45702;52.982;6.658;2023-10-09T08:22:55;16.40;99.90
58865;DHT22;45702;52.982;6.658;2023-10-09T08:25:26;16.50;99.90
58865;DHT22;45702;52.982;6.658;2023-10-09T08:27:54;16.40;99.90
58865;DHT22;45702;52.982;6.658;2023-10-09T08:30:21;16.50;99.90
58865;DHT22;45702;52.982;6.658;2023-10-09T08:32:50;16.50;99.90
58865;DHT22;45702;52.982;6.658;2023-10-09T08:35:29;16.50;99.90
58865;DHT22;45702;52.982;6.658;2023-10-09T08:37:59;16.50;99.90
58865;DHT22;45702;52.982;6.658;2023-10-09T08:40:32;16.60;99.90
58865;DHT22;45702;52.982;6.658;2023-10-09T08:43:09;16.60;99.90
58865;DHT22;45702;52.982;6.658;2023-10-09T08:45:40;16.60;99.90
58865;DHT22;45702;52.982;6.658;2023-10-09T08:48:09;16.60;99.90
58865;DHT22;45702;52.982;6.658;2023-10-09T08:50:45;16.60;99.90
58865;DHT22;45702;52.982;6.658;2023-10-09T08:53:12;16.50;99.90
58865;DHT22;45702;52.982;6.658;2023-10-09T08:55:39;16.50;99.90
58865;DHT22;45702;52.982;6.658;2023-10-09T08:58:06;16.50;99.90
58865;DHT22;45702;52.982;6.658;2023-10-09T09:00:39;16.50;99.90
58865;DHT22;45702;52.982;6.658;2023-10-09T09:03:17;16.50;99.90
58865;DHT22;45702;52.982;6.658;2023-10-09T09:05:48;16.50;99.90
58865;DHT22;45702;52.982;6.658;2023-10-09T09:08:24;16.40;99.90
58865;DHT22;45702;52.982;6.658;2023-10-09T09:11:01;16.40;99.90
58865;DHT22;45702;52.982;6.658;2023-10-09T09:13:45;16.40;99.90
58865;DHT22;45702;52.982;6.658;2023-10-09T09:16:22;16.40;99.90
58865;DHT22;45702;52.982;6.658;2023-10-09T09:18:56;16.40;99.90
58865;DHT22;45702;52.982;6.658;2023-10-09T09:21:39;16.40;99.90
58865;DHT22;45702;52.982;6.658;2023-10-09T09:24:17;16.40;99.90
58865;DHT22;45702;52.982;6.658;2023-10-09T09:27:00;16.50;99.90
58865;DHT22;45702;52.982;6.658;2023-10-09T09:32:08;16.50;99.90
58865;DHT22;45702;52.982;6.658;2023-10-09T09:34:50;16.50;99.90
58865;DHT22;45702;52.982;6.658;2023-10-09T09:37:21;16.50;99.90
58865;DHT22;45702;52.982;6.658;2023-10-09T09:39:47;16.50;99.90
58865;DHT22;45702;52.982;6.658;2023-10-09T09:42:36;16.50;99.90
58865;DHT22;45702;52.982;6.658;2023-10-09T09:45:04;16.50;99.90
58865;DHT22;45702;52.982;6.658;2023-10-09T09:47:31;16.60;99.90
58865;DHT22;45702;52.982;6.658;2023-10-09T09:50:01;16.60;99.90
58865;DHT22;45702;52.982;6.658;2023-10-09T09:52:48;16.60;99.90
58865;DHT22;45702;52.982;6.658;2023-10-09T09:55:19;16.60;99.90
58865;DHT22;45702;52.982;6.658;2023-10-09T09:57:49;16.60;99.90
58865;DHT22;45702;52.982;6.658;2023-10-09T10:00:25;16.70;99.90
58865;DHT22;45702;52.982;6.658;2023-10-09T10:05:55;16.70;99.90
58865;DHT22;45702;52.982;6.658;2023-10-09T10:08:23;16.80;99.90
58865;DHT22;45702;52.982;6.658;2023-10-09T10:10:57;16.80;99.90
58865;DHT22;45702;52.982;6.658;2023-10-09T10:16:12;16.80;99.90
58865;DHT22;45702;52.982;6.658;2023-10-09T10:18:54;16.90;99.90
58865;DHT22;45702;52.982;6.658;2023-10-09T10:21:40;16.90;99.90
58865;DHT22;45702;52.982;6.658;2023-10-09T10:35:19;17.00;99.90
58865;DHT22;45702;52.982;6.658;2023-10-09T10:38:01;17.00;99.90
58865;DHT22;45702;52.982;6.658;2023-10-09T10:40:29;17.00;99.90
58865;DHT22;45702;52.982;6.658;2023-10-09T10:43:04;17.00;99.90
58865;DHT22;45702;52.982;6.658;2023-10-09T10:46:03;17.00;99.90
58865;DHT22;45702;52.982;6.658;2023-10-09T10:48:35;17.00;99.90
58865;DHT22;45702;52.982;6.658;2023-10-09T10:51:04;17.00;99.90
58865;DHT22;45702;52.982;6.658;2023-10-09T10:53:31;17.00;99.90
58865;DHT22;45702;52.982;6.658;2023-10-09T10:56:15;17.00;99.90
58865;DHT22;45702;52.982;6.658;2023-10-09T10:58:41;17.00;99.90
58865;DHT22;45702;52.982;6.658;2023-10-09T11:01:19;17.00;99.90
58865;DHT22;45702;52.982;6.658;2023-10-09T11:03:50;17.00;99.90
58865;DHT22;45702;52.982;6.658;2023-10-09T11:06:28;17.00;99.90
58865;DHT22;45702;52.982;6.658;2023-10-09T11:09:09;17.00;99.90
58865;DHT22;45702;52.982;6.658;2023-10-09T11:11:48;17.00;99.90
58865;DHT22;45702;52.982;6.658;2023-10-09T11:14:17;17.00;99.90
58865;DHT22;45702;52.982;6.658;2023-10-09T11:16:51;17.00;99.90
58865;DHT22;45702;52.982;6.658;2023-10-09T11:19:23;17.00;99.90
58865;DHT22;45702;52.982;6.658;2023-10-09T11:22:01;17.00;99.90
58865;DHT22;45702;52.982;6.658;2023-10-09T11:24:34;17.00;99.90
58865;DHT22;45702;52.982;6.658;2023-10-09T11:27:04;17.00;99.90
58865;DHT22;45702;52.982;6.658;2023-10-09T11:29:48;17.00;99.90
58865;DHT22;45702;52.982;6.658;2023-10-09T11:32:19;17.00;99.90
58865;DHT22;45702;52.982;6.658;2023-10-09T11:34:46;17.00;99.90
58865;DHT22;45702;52.982;6.658;2023-10-09T11:37:19;17.00;99.90
58865;DHT22;45702;52.982;6.658;2023-10-09T11:40:32;17.00;99.90
58865;DHT22;45702;52.982;6.658;2023-10-09T11:43:13;17.00;99.90
58865;DHT22;45702;52.982;6.658;2023-10-09T11:45:39;17.10;99.90
58865;DHT22;45702;52.982;6.658;2023-10-09T11:48:19;17.00;99.90
58865;DHT22;45702;52.982;6.658;2023-10-09T11:51:13;17.10;99.90
58865;DHT22;45702;52.982;6.658;2023-10-09T11:53:45;17.00;99.90
58865;DHT22;45702;52.982;6.658;2023-10-09T11:56:23;17.00;99.90
58865;DHT22;45702;52.982;6.658;2023-10-09T11:58:52;17.00;99.90
58865;DHT22;45702;52.982;6.658;2023-10-09T12:01:19;17.10;99.90
58865;DHT22;45702;52.982;6.658;2023-10-09T12:03:51;17.10;99.90
58865;DHT22;45702;52.982;6.658;2023-10-09T12:06:21;17.10;99.90
58865;DHT22;45702;52.982;6.658;2023-10-09T12:08:55;17.10;99.90
58865;DHT22;45702;52.982;6.658;2023-10-09T12:11:23;17.10;99.90
58865;DHT22;45702;52.982;6.658;2023-10-09T12:13:55;17.10;99.90
58865;DHT22;45702;52.982;6.658;2023-10-09T12:16:24;17.20;99.90
58865;DHT22;45702;52.982;6.658;2023-10-09T12:18:57;17.20;99.90
58865;DHT22;45702;52.982;6.658;2023-10-09T12:21:23;17.20;99.90
58865;DHT22;45702;52.982;6.658;2023-10-09T12:23:54;17.30;99.90
58865;DHT22;45702;52.982;6.658;2023-10-09T12:26:27;17.40;99.90
58865;DHT22;45702;52.982;6.658;2023-10-09T12:28:53;17.40;99.90
58865;DHT22;45702;52.982;6.658;2023-10-09T12:31:18;17.50;99.90
58865;DHT22;45702;52.982;6.658;2023-10-09T12:33:45;17.50;99.90
58865;DHT22;45702;52.982;6.658;2023-10-09T12:36:12;17.60;99.90
58865;DHT22;45702;52.982;6.658;2023-10-09T12:38:46;17.60;99.90
58865;DHT22;45702;52.982;6.658;2023-10-09T12:41:16;17.70;99.90
58865;DHT22;45702;52.982;6.658;2023-10-09T12:43:53;17.60;99.90
58865;DHT22;45702;52.982;6.658;2023-10-09T12:46:19;17.70;99.90
58865;DHT22;45702;52.982;6.658;2023-10-09T12:48:52;17.70;99.90
58865;DHT22;45702;52.982;6.658;2023-10-09T12:51:20;17.70;99.90
58865;DHT22;45702;52.982;6.658;2023-10-09T12:53:52;17.70;99.90
58865;DHT22;45702;52.982;6.658;2023-10-09T12:56:25;17.70;99.90
58865;DHT22;45702;52.982;6.658;2023-10-09T12:59:22;17.80;99.90
58865;DHT22;45702;52.982;6.658;2023-10-09T13:01:49;18.00;99.90
58865;DHT22;45702;52.982;6.658;2023-10-09T13:04:19;18.20;99.90
58865;DHT22;45702;52.982;6.658;2023-10-09T13:06:48;18.20;99.90
58865;DHT22;45702;52.982;6.658;2023-10-09T13:09:17;18.30;99.90
58865;DHT22;45702;52.982;6.658;2023-10-09T13:12:08;18.30;99.90
58865;DHT22;45702;52.982;6.658;2023-10-09T13:14:34;18.40;99.90
58865;DHT22;45702;52.982;6.658;2023-10-09T13:17:01;18.40;99.90
58865;DHT22;45702;52.982;6.658;2023-10-09T13:19:34;18.40;99.90
58865;DHT22;45702;52.982;6.658;2023-10-09T13:22:00;18.40;99.90
58865;DHT22;45702;52.982;6.658;2023-10-09T13:24:29;18.40;99.90
58865;DHT22;45702;52.982;6.658;2023-10-09T13:26:56;18.40;99.90
58865;DHT22;45702;52.982;6.658;2023-10-09T13:29:24;18.50;99.90
58865;DHT22;45702;52.982;6.658;2023-10-09T13:31:54;18.50;99.90
58865;DHT22;45702;52.982;6.658;2023-10-09T13:34:23;18.50;99.90
58865;DHT22;45702;52.982;6.658;2023-10-09T13:36:53;18.50;99.90
58865;DHT22;45702;52.982;6.658;2023-10-09T13:39:21;18.50;99.90
58865;DHT22;45702;52.982;6.658;2023-10-09T13:41:54;18.50;99.90
58865;DHT22;45702;52.982;6.658;2023-10-09T13:44:25;18.40;99.90
58865;DHT22;45702;52.982;6.658;2023-10-09T13:46:53;18.40;99.90
58865;DHT22;45702;52.982;6.658;2023-10-09T13:49:19;18.30;99.90
58865;DHT22;45702;52.982;6.658;2023-10-09T13:51:51;18.30;99.90
58865;DHT22;45702;52.982;6.658;2023-10-09T13:54:23;18.30;99.90
58865;DHT22;45702;52.982;6.658;2023-10-09T13:57:02;18.20;99.90
58865;DHT22;45702;52.982;6.658;2023-10-09T13:59:36;18.20;99.90
58865;DHT22;45702;52.982;6.658;2023-10-09T14:02:03;18.10;99.90
58865;DHT22;45702;52.982;6.658;2023-10-09T14:04:34;18.10;99.90
58865;DHT22;45702;52.982;6.658;2023-10-09T14:07:00;18.10;99.90
58865;DHT22;45702;52.982;6.658;2023-10-09T14:09:28;18.00;99.90
58865;DHT22;45702;52.982;6.658;2023-10-09T14:12:00;18.00;99.90
58865;DHT22;45702;52.982;6.658;2023-10-09T14:14:37;17.90;99.90
58865;DHT22;45702;52.982;6.658;2023-10-09T14:17:13;17.90;99.90
58865;DHT22;45702;52.982;6.658;2023-10-09T14:19:43;17.90;99.90
58865;DHT22;45702;52.982;6.658;2023-10-09T14:22:19;17.90;99.90
58865;DHT22;45702;52.982;6.658;2023-10-09T14:24:46;17.80;99.90
58865;DHT22;45702;52.982;6.658;2023-10-09T14:27:15;17.80;99.90
58865;DHT22;45702;52.982;6.658;2023-10-09T14:29:49;17.80;99.90
58865;DHT22;45702;52.982;6.658;2023-10-09T14:32:15;17.70;99.90
58865;DHT22;45702;52.982;6.658;2023-10-09T14:34:45;17.70;99.90
58865;DHT22;45702;52.982;6.658;2023-10-09T14:37:18;17.70;99.90
58865;DHT22;45702;52.982;6.658;2023-10-09T14:39:45;17.60;99.90
58865;DHT22;45702;52.982;6.658;2023-10-09T14:42:17;17.60;99.90
58865;DHT22;45702;52.982;6.658;2023-10-09T14:44:44;17.60;99.90
58865;DHT22;45702;52.982;6.658;2023-10-09T14:47:13;17.60;99.90
58865;DHT22;45702;52.982;6.658;2023-10-09T14:49:47;17.60;99.90
58865;DHT22;45702;52.982;6.658;2023-10-09T14:52:14;17.60;99.90
58865;DHT22;45702;52.982;6.658;2023-10-09T14:54:44;17.60;99.90
58865;DHT22;45702;52.982;6.658;2023-10-09T14:57:11;17.60;99.90
58865;DHT22;45702;52.982;6.658;2023-10-09T14:59:37;17.50;99.90
58865;DHT22;45702;52.982;6.658;2023-10-09T15:02:04;17.50;99.90
58865;DHT22;45702;52.982;6.658;2023-10-09T15:04:33;17.50;99.90
58865;DHT22;45702;52.982;6.658;2023-10-09T15:07:01;17.50;99.90
58865;DHT22;45702;52.982;6.658;2023-10-09T15:09:27;17.50;99.90
58865;DHT22;45702;52.982;6.658;2023-10-09T15:11:57;17.50;99.90
58865;DHT22;45702;52.982;6.658;2023-10-09T15:14:23;17.50;99.90
58865;DHT22;45702;52.982;6.658;2023-10-09T15:16:49;17.50;99.90
58865;DHT22;45702;52.982;6.658;2023-10-09T15:19:16;17.40;99.90
58865;DHT22;45702;52.982;6.658;2023-10-09T15:21:44;17.40;99.90
58865;DHT22;45702;52.982;6.658;2023-10-09T15:24:16;17.40;99.90
58865;DHT22;45702;52.982;6.658;2023-10-09T15:26:48;17.40;99.90
58865;DHT22;45702;52.982;6.658;2023-10-09T15:29:28;17.40;99.90
58865;DHT22;45702;52.982;6.658;2023-10-09T15:32:01;17.40;99.90
58865;DHT22;45702;52.982;6.658;2023-10-09T15:34:39;17.40;99.90
58865;DHT22;45702;52.982;6.658;2023-10-09T15:37:05;17.40;99.90
58865;DHT22;45702;52.982;6.658;2023-10-09T15:39:34;17.40;99.90
58865;DHT22;45702;52.982;6.658;2023-10-09T15:42:00;17.30;99.90
58865;DHT22;45702;52.982;6.658;2023-10-09T15:44:25;17.30;99.90
58865;DHT22;45702;52.982;6.658;2023-10-09T15:46:51;17.30;99.90
58865;DHT22;45702;52.982;6.658;2023-10-09T15:49:26;17.30;99.90
58865;DHT22;45702;52.982;6.658;2023-10-09T15:51:53;17.30;99.90
58865;DHT22;45702;52.982;6.658;2023-10-09T15:54:18;17.30;99.90
58865;DHT22;45702;52.982;6.658;2023-10-09T15:56:45;17.20;99.90
58865;DHT22;45702;52.982;6.658;2023-10-09T15:59:11;17.20;99.90
58865;DHT22;45702;52.982;6.658;2023-10-09T16:01:37;17.20;99.90
58865;DHT22;45702;52.982;6.658;2023-10-09T16:04:09;17.20;99.90
58865;DHT22;45702;52.982;6.658;2023-10-09T16:06:36;17.10;99.90
58865;DHT22;45702;52.982;6.658;2023-10-09T16:09:07;17.10;99.90
58865;DHT22;45702;52.982;6.658;2023-10-09T16:11:41;17.10;99.90
58865;DHT22;45702;52.982;6.658;2023-10-09T16:14:07;17.10;99.90
58865;DHT22;45702;52.982;6.658;2023-10-09T16:16:36;17.00;99.90
58865;DHT22;45702;52.982;6.658;2023-10-09T16:19:08;17.00;99.90
58865;DHT22;45702;52.982;6.658;2023-10-09T16:21:38;17.00;99.90
58865;DHT22;45702;52.982;6.658;2023-10-09T16:24:04;16.90;99.90
58865;DHT22;45702;52.982;6.658;2023-10-09T16:26:35;16.90;99.90
58865;DHT22;45702;52.982;6.658;2023-10-09T16:29:11;16.90;99.90
58865;DHT22;45702;52.982;6.658;2023-10-09T16:31:38;16.80;99.90
58865;DHT22;45702;52.982;6.658;2023-10-09T16:34:04;16.70;99.90
58865;DHT22;45702;52.982;6.658;2023-10-09T16:36:35;16.80;99.90
58865;DHT22;45702;52.982;6.658;2023-10-09T16:39:03;16.70;99.90
58865;DHT22;45702;52.982;6.658;2023-10-09T16:41:29;16.70;99.90